COOK1: Arkansas River Nr Coolidge, KS

                                SHEF ID:       COOK1     ARKANSAS R NR COOLIDGE, KS
STATION TYPE:
Regulating: Stage = 8.00, Flow = 2028

PRECIP STAGE STAGE(2) RIV-FLOW WTR-TEMP CONDUCT BAT-LOAD
in ft ft cfs F umho/cm volt
Ccp-Rev Ccp-Rev Ccp-Rev Ccp-Rev Ccp-Rev Ccp-Rev Ccp-Rev
(America/Chicago)
08/11 00:00 0.00 3.47 3.69 154 70.11 4896 12.95
08/11 01:00 0.00 3.46 3.69 153 69.78 4907 12.95
08/11 02:00 0.00 3.43 3.66 148 69.40 4912 12.95
08/11 03:00 0.00 3.43 3.66 148 69.01 4907 12.89
08/11 04:00 0.00 3.43 3.65 148 68.67 4878 12.89
08/11 05:00 0.00 3.42 3.64 147 68.43 4891 12.89
08/11 06:00 0.00 3.43 3.64 148 68.22 4934 12.89
08/11 07:00 0.00 3.40 3.63 144 67.95 4968 12.89
08/11 08:00 0.00 3.41 3.64 145 67.71 4968 12.89
08/11 09:00 0.00 3.42 3.66 147 67.66 4963 12.89
08/11 10:00 0.00 3.44 3.66 150 67.59 4963 13.00
08/11 11:00 0.00 3.43 3.67 148 67.75 4968 13.00
08/11 12:00 0.00 3.42 3.65 147 67.98 4982 13.12
08/11 13:00 0.00 3.43 3.65 148 69.12 4988 13.53
08/11 14:00 0.00 3.43 3.65 148 71.51 4982 13.83
08/11 15:00 0.00 3.47 3.68 154 73.94 4975 13.83
08/11 16:00 0.00 3.50 3.69 159 76.08 4939 13.83
08/11 17:00 0.00 3.46 3.66 153 77.70 4939 13.71
08/11 18:00 0.00 3.43 3.65 148 78.55 4939 13.48
08/11 19:00 0.00 3.44 3.64 150 78.71 4927 13.30
08/11 20:00 0.00 3.45 3.66 151 78.33 4921 13.18
08/11 21:00 0.00 3.43 3.63 148 77.90 4937 13.07
08/11 22:00 0.00 3.43 3.64 148 77.23 4955 13.00
08/11 23:00 ---- ---- ---- ---- ---- ---- ----
Data processed at Mon 12Aug2024 04:30 GMT

Parsing this webpage?

Checkout our new Data API! CWMSDataAPI (CDA)

Timeseries IDs (TSIDs)

TSIDs used from left to right in the data table
COOL.Precip-Inc.Total.1Hour.1Hour.Ccp-Rev
COOL.Stage.Inst.1Hour.0.Ccp-Rev
COOL.Stage-Alt.Inst.1Hour.0.Ccp-Rev
COOL.Flow.Inst.1Hour.0.Ccp-Rev
COOL.Temp-Water.Inst.1Hour.0.Ccp-Rev
COOL.Cond.Inst.1Hour.0.Ccp-Rev
COOL.Volt-Battery Load.Inst.1Hour.0.Ccp-Rev

                            

All information presented herein is the property of the government of the United States of America and may be revised or deleted at any time without prior notice. Dissemination of this information without the expressed written consent of the Public Affairs Office, Tulsa District U.S. Army Corps of Engineers is strictly prohibited. These data are gathered electronically and, as presented, have NOT undergone any form of quality control. These data are NOT guaranteed to be valid or correct.